sensor_id;sensor_type;location;lat;lon;timestamp;P1;durP1;ratioP1;P2;durP2;ratioP2
22965;SDS011;11649;48.090;9.754;2023-02-15T00:01:50;21.38;;;15.02;;
22965;SDS011;11649;48.090;9.754;2023-02-15T00:04:19;42.33;;;16.17;;
22965;SDS011;11649;48.090;9.754;2023-02-15T00:06:47;19.35;;;14.75;;
22965;SDS011;11649;48.090;9.754;2023-02-15T00:09:14;176.40;;;17.00;;
22965;SDS011;11649;48.090;9.754;2023-02-15T00:11:41;119.32;;;15.45;;
22965;SDS011;11649;48.090;9.754;2023-02-15T00:14:17;19.58;;;14.05;;
22965;SDS011;11649;48.090;9.754;2023-02-15T00:16:45;19.60;;;14.70;;
22965;SDS011;11649;48.090;9.754;2023-02-15T00:19:12;35.95;;;14.80;;
22965;SDS011;11649;48.090;9.754;2023-02-15T00:21:40;39.67;;;15.05;;
22965;SDS011;11649;48.090;9.754;2023-02-15T00:24:08;164.82;;;17.15;;
22965;SDS011;11649;48.090;9.754;2023-02-15T00:26:37;60.30;;;15.75;;
22965;SDS011;11649;48.090;9.754;2023-02-15T00:29:06;20.63;;;14.68;;
22965;SDS011;11649;48.090;9.754;2023-02-15T00:31:34;33.88;;;15.73;;
22965;SDS011;11649;48.090;9.754;2023-02-15T00:34:05;21.17;;;14.75;;
22965;SDS011;11649;48.090;9.754;2023-02-15T00:36:36;39.97;;;14.15;;
22965;SDS011;11649;48.090;9.754;2023-02-15T00:39:04;201.40;;;16.05;;
22965;SDS011;11649;48.090;9.754;2023-02-15T00:41:31;28.45;;;14.32;;
22965;SDS011;11649;48.090;9.754;2023-02-15T00:43:58;20.85;;;14.30;;
22965;SDS011;11649;48.090;9.754;2023-02-15T00:46:25;21.92;;;15.05;;
22965;SDS011;11649;48.090;9.754;2023-02-15T00:48:52;19.42;;;14.20;;
22965;SDS011;11649;48.090;9.754;2023-02-15T00:51:18;113.45;;;15.43;;
22965;SDS011;11649;48.090;9.754;2023-02-15T00:53:46;28.45;;;14.02;;
22965;SDS011;11649;48.090;9.754;2023-02-15T00:56:13;143.00;;;15.27;;
22965;SDS011;11649;48.090;9.754;2023-02-15T00:58:40;54.05;;;14.32;;
22965;SDS011;11649;48.090;9.754;2023-02-15T01:01:09;18.35;;;13.75;;
22965;SDS011;11649;48.090;9.754;2023-02-15T01:03:38;60.30;;;13.88;;
22965;SDS011;11649;48.090;9.754;2023-02-15T01:06:07;53.88;;;13.85;;
22965;SDS011;11649;48.090;9.754;2023-02-15T01:08:34;16.98;;;12.77;;
22965;SDS011;11649;48.090;9.754;2023-02-15T01:11:08;25.42;;;14.13;;
22965;SDS011;11649;48.090;9.754;2023-02-15T01:13:37;18.50;;;13.35;;
22965;SDS011;11649;48.090;9.754;2023-02-15T01:16:05;18.30;;;12.57;;
22965;SDS011;11649;48.090;9.754;2023-02-15T01:18:32;15.35;;;11.73;;
22965;SDS011;11649;48.090;9.754;2023-02-15T01:20:59;23.33;;;12.35;;
22965;SDS011;11649;48.090;9.754;2023-02-15T01:23:26;16.02;;;12.25;;
22965;SDS011;11649;48.090;9.754;2023-02-15T01:25:53;27.25;;;12.35;;
22965;SDS011;11649;48.090;9.754;2023-02-15T01:28:19;16.92;;;13.00;;
22965;SDS011;11649;48.090;9.754;2023-02-15T01:30:46;19.67;;;12.48;;
22965;SDS011;11649;48.090;9.754;2023-02-15T01:33:13;17.35;;;12.77;;
22965;SDS011;11649;48.090;9.754;2023-02-15T01:35:44;28.83;;;13.32;;
22965;SDS011;11649;48.090;9.754;2023-02-15T01:38:12;34.30;;;12.25;;
22965;SDS011;11649;48.090;9.754;2023-02-15T01:40:40;17.85;;;12.68;;
22965;SDS011;11649;48.090;9.754;2023-02-15T01:43:11;16.48;;;12.18;;
22965;SDS011;11649;48.090;9.754;2023-02-15T01:45:38;40.13;;;13.27;;
22965;SDS011;11649;48.090;9.754;2023-02-15T01:48:08;97.45;;;13.95;;
22965;SDS011;11649;48.090;9.754;2023-02-15T01:50:49;19.02;;;13.18;;
22965;SDS011;11649;48.090;9.754;2023-02-15T01:53:21;41.33;;;13.38;;
22965;SDS011;11649;48.090;9.754;2023-02-15T01:55:57;20.02;;;12.40;;
22965;SDS011;11649;48.090;9.754;2023-02-15T01:58:28;18.52;;;12.98;;
22965;SDS011;11649;48.090;9.754;2023-02-15T02:00:57;19.67;;;12.77;;
22965;SDS011;11649;48.090;9.754;2023-02-15T02:03:38;41.35;;;12.65;;
22965;SDS011;11649;48.090;9.754;2023-02-15T02:06:24;20.75;;;13.32;;
22965;SDS011;11649;48.090;9.754;2023-02-15T02:08:55;26.00;;;12.60;;
22965;SDS011;11649;48.090;9.754;2023-02-15T02:11:22;17.58;;;12.45;;
22965;SDS011;11649;48.090;9.754;2023-02-15T02:13:50;16.58;;;12.02;;
22965;SDS011;11649;48.090;9.754;2023-02-15T02:16:20;20.50;;;12.02;;
22965;SDS011;11649;48.090;9.754;2023-02-15T02:22:23;14.52;;;11.13;;
22965;SDS011;11649;48.090;9.754;2023-02-15T02:34:19;17.25;;;11.85;;
22965;SDS011;11649;48.090;9.754;2023-02-15T02:36:58;41.88;;;11.95;;
22965;SDS011;11649;48.090;9.754;2023-02-15T02:39:32;20.67;;;11.23;;
22965;SDS011;11649;48.090;9.754;2023-02-15T02:42:09;43.53;;;12.18;;
22965;SDS011;11649;48.090;9.754;2023-02-15T02:47:43;16.80;;;11.77;;
22965;SDS011;11649;48.090;9.754;2023-02-15T02:50:21;15.35;;;11.80;;
22965;SDS011;11649;48.090;9.754;2023-02-15T02:52:52;14.70;;;11.18;;
22965;SDS011;11649;48.090;9.754;2023-02-15T02:57:54;15.63;;;11.27;;
22965;SDS011;11649;48.090;9.754;2023-02-15T03:00:32;118.22;;;12.85;;
22965;SDS011;11649;48.090;9.754;2023-02-15T03:03:03;64.05;;;12.85;;
22965;SDS011;11649;48.090;9.754;2023-02-15T03:05:37;69.10;;;13.85;;
22965;SDS011;11649;48.090;9.754;2023-02-15T03:08:07;35.38;;;13.05;;
22965;SDS011;11649;48.090;9.754;2023-02-15T03:10:36;35.75;;;13.13;;
22965;SDS011;11649;48.090;9.754;2023-02-15T03:13:04;169.52;;;14.68;;
22965;SDS011;11649;48.090;9.754;2023-02-15T03:15:33;225.10;;;15.50;;
22965;SDS011;11649;48.090;9.754;2023-02-15T03:18:22;56.50;;;14.73;;
22965;SDS011;11649;48.090;9.754;2023-02-15T03:20:54;221.80;;;16.70;;
22965;SDS011;11649;48.090;9.754;2023-02-15T03:23:22;20.13;;;14.00;;
22965;SDS011;11649;48.090;9.754;2023-02-15T03:25:52;27.65;;;13.85;;
22965;SDS011;11649;48.090;9.754;2023-02-15T03:28:34;20.33;;;14.23;;
22965;SDS011;11649;48.090;9.754;2023-02-15T03:31:04;19.90;;;14.52;;
22965;SDS011;11649;48.090;9.754;2023-02-15T03:33:33;207.05;;;17.10;;
22965;SDS011;11649;48.090;9.754;2023-02-15T03:39:01;201.07;;;16.23;;
22965;SDS011;11649;48.090;9.754;2023-02-15T03:41:55;19.67;;;13.65;;
22965;SDS011;11649;48.090;9.754;2023-02-15T03:47:21;20.40;;;14.20;;
22965;SDS011;11649;48.090;9.754;2023-02-15T03:50:00;20.52;;;13.55;;
22965;SDS011;11649;48.090;9.754;2023-02-15T03:52:57;14.93;;;10.45;;
22965;SDS011;11649;48.090;9.754;2023-02-15T03:55:27;22.65;;;13.32;;
22965;SDS011;11649;48.090;9.754;2023-02-15T03:57:55;23.85;;;13.07;;
22965;SDS011;11649;48.090;9.754;2023-02-15T04:00:42;17.63;;;12.32;;
22965;SDS011;11649;48.090;9.754;2023-02-15T04:06:09;21.00;;;13.40;;
22965;SDS011;11649;48.090;9.754;2023-02-15T04:08:36;16.88;;;12.23;;
22965;SDS011;11649;48.090;9.754;2023-02-15T04:11:21;27.65;;;11.73;;
22965;SDS011;11649;48.090;9.754;2023-02-15T04:13:47;68.95;;;13.25;;
22965;SDS011;11649;48.090;9.754;2023-02-15T04:16:25;38.90;;;13.65;;
22965;SDS011;11649;48.090;9.754;2023-02-15T04:18:56;39.80;;;11.52;;
22965;SDS011;11649;48.090;9.754;2023-02-15T04:21:41;23.27;;;11.07;;
22965;SDS011;11649;48.090;9.754;2023-02-15T04:24:27;33.70;;;13.57;;
22965;SDS011;11649;48.090;9.754;2023-02-15T04:27:12;17.88;;;11.85;;
22965;SDS011;11649;48.090;9.754;2023-02-15T04:29:40;16.42;;;11.65;;
22965;SDS011;11649;48.090;9.754;2023-02-15T04:32:07;17.83;;;12.40;;
22965;SDS011;11649;48.090;9.754;2023-02-15T04:34:34;22.88;;;12.00;;
22965;SDS011;11649;48.090;9.754;2023-02-15T04:37:00;19.38;;;12.32;;
22965;SDS011;11649;48.090;9.754;2023-02-15T04:39:27;27.48;;;11.63;;
22965;SDS011;11649;48.090;9.754;2023-02-15T04:41:54;231.13;;;14.15;;
22965;SDS011;11649;48.090;9.754;2023-02-15T04:44:20;26.20;;;12.43;;
22965;SDS011;11649;48.090;9.754;2023-02-15T04:46:47;61.00;;;12.90;;
22965;SDS011;11649;48.090;9.754;2023-02-15T04:49:14;36.38;;;13.40;;
22965;SDS011;11649;48.090;9.754;2023-02-15T04:51:41;34.28;;;12.18;;
22965;SDS011;11649;48.090;9.754;2023-02-15T04:54:07;46.70;;;13.38;;
22965;SDS011;11649;48.090;9.754;2023-02-15T04:56:34;20.58;;;13.70;;
22965;SDS011;11649;48.090;9.754;2023-02-15T04:59:03;30.80;;;14.55;;
22965;SDS011;11649;48.090;9.754;2023-02-15T05:01:30;48.20;;;13.77;;
22965;SDS011;11649;48.090;9.754;2023-02-15T05:03:57;31.48;;;12.75;;
22965;SDS011;11649;48.090;9.754;2023-02-15T05:06:24;103.20;;;14.40;;
22965;SDS011;11649;48.090;9.754;2023-02-15T05:08:50;53.60;;;16.20;;
22965;SDS011;11649;48.090;9.754;2023-02-15T05:11:17;192.15;;;16.80;;
22965;SDS011;11649;48.090;9.754;2023-02-15T05:13:44;161.52;;;15.43;;
22965;SDS011;11649;48.090;9.754;2023-02-15T05:16:11;24.20;;;15.35;;
22965;SDS011;11649;48.090;9.754;2023-02-15T05:18:37;24.67;;;16.30;;
22965;SDS011;11649;48.090;9.754;2023-02-15T05:21:04;36.72;;;14.50;;
22965;SDS011;11649;48.090;9.754;2023-02-15T05:23:31;22.90;;;14.30;;
22965;SDS011;11649;48.090;9.754;2023-02-15T05:25:58;36.65;;;14.25;;
22965;SDS011;11649;48.090;9.754;2023-02-15T05:28:43;26.95;;;17.15;;
22965;SDS011;11649;48.090;9.754;2023-02-15T05:31:14;20.80;;;13.77;;
22965;SDS011;11649;48.090;9.754;2023-02-15T05:33:45;24.38;;;14.32;;
22965;SDS011;11649;48.090;9.754;2023-02-15T05:36:12;45.00;;;13.65;;
22965;SDS011;11649;48.090;9.754;2023-02-15T05:38:39;37.10;;;13.05;;
22965;SDS011;11649;48.090;9.754;2023-02-15T05:41:06;34.00;;;12.82;;
22965;SDS011;11649;48.090;9.754;2023-02-15T05:43:34;24.88;;;12.65;;
22965;SDS011;11649;48.090;9.754;2023-02-15T05:46:01;34.50;;;12.43;;
22965;SDS011;11649;48.090;9.754;2023-02-15T05:48:29;34.03;;;13.20;;
22965;SDS011;11649;48.090;9.754;2023-02-15T05:50:58;17.65;;;12.05;;
22965;SDS011;11649;48.090;9.754;2023-02-15T05:53:32;20.98;;;13.15;;
22965;SDS011;11649;48.090;9.754;2023-02-15T05:56:01;22.13;;;14.65;;
22965;SDS011;11649;48.090;9.754;2023-02-15T05:58:30;27.58;;;13.07;;
22965;SDS011;11649;48.090;9.754;2023-02-15T06:00:59;17.65;;;12.00;;
22965;SDS011;11649;48.090;9.754;2023-02-15T06:03:33;21.33;;;13.32;;
22965;SDS011;11649;48.090;9.754;2023-02-15T06:06:00;23.88;;;12.20;;
22965;SDS011;11649;48.090;9.754;2023-02-15T06:08:27;17.17;;;11.27;;
22965;SDS011;11649;48.090;9.754;2023-02-15T06:10:54;23.95;;;12.77;;
22965;SDS011;11649;48.090;9.754;2023-02-15T06:13:20;19.83;;;13.35;;
22965;SDS011;11649;48.090;9.754;2023-02-15T06:15:47;117.07;;;14.02;;
22965;SDS011;11649;48.090;9.754;2023-02-15T06:18:14;107.95;;;15.88;;
22965;SDS011;11649;48.090;9.754;2023-02-15T06:20:40;19.77;;;13.75;;
22965;SDS011;11649;48.090;9.754;2023-02-15T06:23:07;24.27;;;14.07;;
22965;SDS011;11649;48.090;9.754;2023-02-15T06:25:34;93.85;;;19.88;;
22965;SDS011;11649;48.090;9.754;2023-02-15T06:28:03;20.88;;;13.63;;
22965;SDS011;11649;48.090;9.754;2023-02-15T06:30:29;86.63;;;16.98;;
22965;SDS011;11649;48.090;9.754;2023-02-15T06:32:56;31.90;;;14.30;;
22965;SDS011;11649;48.090;9.754;2023-02-15T06:35:23;31.45;;;13.25;;
22965;SDS011;11649;48.090;9.754;2023-02-15T06:37:50;22.73;;;13.63;;
22965;SDS011;11649;48.090;9.754;2023-02-15T06:40:17;42.05;;;21.58;;
22965;SDS011;11649;48.090;9.754;2023-02-15T06:42:43;34.33;;;23.13;;
22965;SDS011;11649;48.090;9.754;2023-02-15T06:45:10;26.23;;;17.33;;
22965;SDS011;11649;48.090;9.754;2023-02-15T06:47:38;25.63;;;15.90;;
22965;SDS011;11649;48.090;9.754;2023-02-15T06:50:05;33.13;;;23.52;;
22965;SDS011;11649;48.090;9.754;2023-02-15T06:52:33;18.02;;;13.05;;
22965;SDS011;11649;48.090;9.754;2023-02-15T06:54:59;53.80;;;20.52;;
22965;SDS011;11649;48.090;9.754;2023-02-15T06:57:26;31.08;;;14.38;;
22965;SDS011;11649;48.090;9.754;2023-02-15T06:59:53;27.85;;;13.75;;
22965;SDS011;11649;48.090;9.754;2023-02-15T07:02:20;19.52;;;12.35;;
22965;SDS011;11649;48.090;9.754;2023-02-15T07:04:46;29.50;;;13.70;;
22965;SDS011;11649;48.090;9.754;2023-02-15T07:07:13;29.35;;;13.35;;
22965;SDS011;11649;48.090;9.754;2023-02-15T07:09:40;75.28;;;16.88;;
22965;SDS011;11649;48.090;9.754;2023-02-15T07:12:07;24.02;;;14.88;;
22965;SDS011;11649;48.090;9.754;2023-02-15T07:14:54;22.10;;;14.10;;
22965;SDS011;11649;48.090;9.754;2023-02-15T07:17:21;21.88;;;14.57;;
22965;SDS011;11649;48.090;9.754;2023-02-15T07:20:09;36.42;;;15.88;;
22965;SDS011;11649;48.090;9.754;2023-02-15T07:22:37;22.65;;;15.32;;
22965;SDS011;11649;48.090;9.754;2023-02-15T07:25:05;22.92;;;13.68;;
22965;SDS011;11649;48.090;9.754;2023-02-15T07:27:34;20.88;;;12.68;;
22965;SDS011;11649;48.090;9.754;2023-02-15T07:30:02;33.70;;;12.82;;
22965;SDS011;11649;48.090;9.754;2023-02-15T07:32:31;72.65;;;14.27;;
22965;SDS011;11649;48.090;9.754;2023-02-15T07:34:58;23.23;;;14.40;;
22965;SDS011;11649;48.090;9.754;2023-02-15T07:37:26;21.23;;;14.52;;
22965;SDS011;11649;48.090;9.754;2023-02-15T07:39:53;21.42;;;14.23;;
22965;SDS011;11649;48.090;9.754;2023-02-15T07:42:20;62.22;;;15.27;;
22965;SDS011;11649;48.090;9.754;2023-02-15T07:44:48;22.40;;;14.40;;
22965;SDS011;11649;48.090;9.754;2023-02-15T07:47:15;28.40;;;14.57;;
22965;SDS011;11649;48.090;9.754;2023-02-15T07:49:42;33.72;;;14.05;;
22965;SDS011;11649;48.090;9.754;2023-02-15T07:52:08;22.48;;;14.82;;
22965;SDS011;11649;48.090;9.754;2023-02-15T07:54:35;22.88;;;15.43;;
22965;SDS011;11649;48.090;9.754;2023-02-15T07:57:02;21.15;;;14.68;;
22965;SDS011;11649;48.090;9.754;2023-02-15T07:59:29;19.48;;;13.65;;
22965;SDS011;11649;48.090;9.754;2023-02-15T08:01:55;23.17;;;14.40;;
22965;SDS011;11649;48.090;9.754;2023-02-15T08:04:23;16.33;;;11.73;;
22965;SDS011;11649;48.090;9.754;2023-02-15T08:06:53;30.48;;;14.55;;
22965;SDS011;11649;48.090;9.754;2023-02-15T08:09:21;55.35;;;16.60;;
22965;SDS011;11649;48.090;9.754;2023-02-15T08:11:48;25.63;;;16.08;;
22965;SDS011;11649;48.090;9.754;2023-02-15T08:14:17;30.17;;;15.90;;
22965;SDS011;11649;48.090;9.754;2023-02-15T08:21:52;19.77;;;13.27;;
22965;SDS011;11649;48.090;9.754;2023-02-15T08:24:23;20.05;;;12.65;;
22965;SDS011;11649;48.090;9.754;2023-02-15T08:26:51;23.20;;;12.50;;
22965;SDS011;11649;48.090;9.754;2023-02-15T08:29:19;22.27;;;13.38;;
22965;SDS011;11649;48.090;9.754;2023-02-15T08:32:10;19.92;;;12.80;;
22965;SDS011;11649;48.090;9.754;2023-02-15T08:34:39;22.42;;;14.02;;
22965;SDS011;11649;48.090;9.754;2023-02-15T08:37:07;31.23;;;15.82;;
22965;SDS011;11649;48.090;9.754;2023-02-15T08:39:37;34.50;;;17.58;;
22965;SDS011;11649;48.090;9.754;2023-02-15T08:42:04;22.70;;;15.20;;
22965;SDS011;11649;48.090;9.754;2023-02-15T08:44:30;21.92;;;15.10;;
22965;SDS011;11649;48.090;9.754;2023-02-15T08:46:57;22.02;;;14.80;;
22965;SDS011;11649;48.090;9.754;2023-02-15T08:49:30;26.40;;;15.38;;
22965;SDS011;11649;48.090;9.754;2023-02-15T08:51:57;20.42;;;14.15;;
22965;SDS011;11649;48.090;9.754;2023-02-15T08:54:23;19.63;;;14.10;;
22965;SDS011;11649;48.090;9.754;2023-02-15T08:56:57;23.05;;;15.10;;
22965;SDS011;11649;48.090;9.754;2023-02-15T08:59:25;21.92;;;14.80;;
22965;SDS011;11649;48.090;9.754;2023-02-15T09:01:53;22.20;;;14.82;;
22965;SDS011;11649;48.090;9.754;2023-02-15T09:04:20;19.48;;;13.20;;
22965;SDS011;11649;48.090;9.754;2023-02-15T09:06:49;21.55;;;15.07;;
22965;SDS011;11649;48.090;9.754;2023-02-15T09:09:16;24.42;;;14.18;;
22965;SDS011;11649;48.090;9.754;2023-02-15T09:11:45;21.50;;;14.55;;
22965;SDS011;11649;48.090;9.754;2023-02-15T09:14:14;24.55;;;15.88;;
22965;SDS011;11649;48.090;9.754;2023-02-15T09:16:46;19.35;;;13.48;;
22965;SDS011;11649;48.090;9.754;2023-02-15T09:19:15;25.05;;;14.75;;
22965;SDS011;11649;48.090;9.754;2023-02-15T09:21:44;22.52;;;15.02;;
22965;SDS011;11649;48.090;9.754;2023-02-15T09:24:11;26.60;;;17.77;;
22965;SDS011;11649;48.090;9.754;2023-02-15T09:26:42;29.92;;;19.92;;
22965;SDS011;11649;48.090;9.754;2023-02-15T09:29:11;27.95;;;19.80;;
22965;SDS011;11649;48.090;9.754;2023-02-15T09:31:40;33.10;;;23.83;;
22965;SDS011;11649;48.090;9.754;2023-02-15T09:34:16;23.98;;;16.33;;
22965;SDS011;11649;48.090;9.754;2023-02-15T09:36:44;21.73;;;15.23;;
22965;SDS011;11649;48.090;9.754;2023-02-15T09:39:29;22.88;;;15.50;;
22965;SDS011;11649;48.090;9.754;2023-02-15T09:47:34;25.00;;;17.38;;
22965;SDS011;11649;48.090;9.754;2023-02-15T09:56:28;26.40;;;17.75;;
22965;SDS011;11649;48.090;9.754;2023-02-15T10:01:59;26.38;;;18.33;;
22965;SDS011;11649;48.090;9.754;2023-02-15T10:05:08;29.23;;;20.33;;
22965;SDS011;11649;48.090;9.754;2023-02-15T10:14:12;30.15;;;19.55;;
22965;SDS011;11649;48.090;9.754;2023-02-15T10:19:24;22.60;;;15.68;;
22965;SDS011;11649;48.090;9.754;2023-02-15T10:27:51;21.15;;;15.40;;
22965;SDS011;11649;48.090;9.754;2023-02-15T10:30:19;19.73;;;13.93;;
22965;SDS011;11649;48.090;9.754;2023-02-15T10:33:09;20.73;;;14.93;;
22965;SDS011;11649;48.090;9.754;2023-02-15T10:36:02;19.08;;;14.57;;
22965;SDS011;11649;48.090;9.754;2023-02-15T10:41:29;21.95;;;16.63;;
22965;SDS011;11649;48.090;9.754;2023-02-15T10:47:05;19.02;;;14.18;;
22965;SDS011;11649;48.090;9.754;2023-02-15T10:55:11;19.15;;;13.68;;
22965;SDS011;11649;48.090;9.754;2023-02-15T11:06:17;19.48;;;14.63;;
22965;SDS011;11649;48.090;9.754;2023-02-15T11:08:47;18.60;;;13.35;;
22965;SDS011;11649;48.090;9.754;2023-02-15T11:11:29;20.85;;;14.27;;
22965;SDS011;11649;48.090;9.754;2023-02-15T11:14:02;26.92;;;16.55;;
22965;SDS011;11649;48.090;9.754;2023-02-15T11:16:51;18.40;;;14.15;;
22965;SDS011;11649;48.090;9.754;2023-02-15T11:19:25;21.30;;;15.27;;
22965;SDS011;11649;48.090;9.754;2023-02-15T11:21:57;22.75;;;15.48;;
22965;SDS011;11649;48.090;9.754;2023-02-15T11:24:28;21.58;;;15.73;;
22965;SDS011;11649;48.090;9.754;2023-02-15T11:26:59;20.55;;;15.02;;
22965;SDS011;11649;48.090;9.754;2023-02-15T11:30:05;20.73;;;15.48;;
22965;SDS011;11649;48.090;9.754;2023-02-15T11:32:40;20.92;;;15.25;;
22965;SDS011;11649;48.090;9.754;2023-02-15T11:38:14;23.27;;;16.60;;
22965;SDS011;11649;48.090;9.754;2023-02-15T11:40:48;20.60;;;15.43;;
22965;SDS011;11649;48.090;9.754;2023-02-15T11:43:36;22.25;;;15.85;;
22965;SDS011;11649;48.090;9.754;2023-02-15T11:46:15;20.65;;;15.60;;
22965;SDS011;11649;48.090;9.754;2023-02-15T11:48:42;22.98;;;16.60;;
22965;SDS011;11649;48.090;9.754;2023-02-15T11:51:09;24.42;;;16.67;;
22965;SDS011;11649;48.090;9.754;2023-02-15T11:53:39;20.75;;;15.45;;
22965;SDS011;11649;48.090;9.754;2023-02-15T11:56:12;20.45;;;14.98;;
22965;SDS011;11649;48.090;9.754;2023-02-15T11:58:46;21.63;;;15.68;;
22965;SDS011;11649;48.090;9.754;2023-02-15T12:04:06;22.45;;;16.10;;
22965;SDS011;11649;48.090;9.754;2023-02-15T12:06:54;20.50;;;15.45;;
22965;SDS011;11649;48.090;9.754;2023-02-15T12:09:36;22.67;;;17.10;;
22965;SDS011;11649;48.090;9.754;2023-02-15T12:14:50;23.85;;;16.77;;
22965;SDS011;11649;48.090;9.754;2023-02-15T12:17:21;23.00;;;16.17;;
22965;SDS011;11649;48.090;9.754;2023-02-15T12:20:00;24.98;;;17.58;;
22965;SDS011;11649;48.090;9.754;2023-02-15T12:22:34;21.85;;;16.55;;
22965;SDS011;11649;48.090;9.754;2023-02-15T12:25:04;25.52;;;17.40;;
22965;SDS011;11649;48.090;9.754;2023-02-15T12:27:47;25.00;;;18.58;;
22965;SDS011;11649;48.090;9.754;2023-02-15T12:30:18;23.23;;;17.02;;
22965;SDS011;11649;48.090;9.754;2023-02-15T12:32:54;23.02;;;17.30;;
22965;SDS011;11649;48.090;9.754;2023-02-15T12:35:27;24.60;;;16.90;;
22965;SDS011;11649;48.090;9.754;2023-02-15T12:38:01;23.25;;;17.33;;
22965;SDS011;11649;48.090;9.754;2023-02-15T12:40:35;24.77;;;17.75;;
22965;SDS011;11649;48.090;9.754;2023-02-15T12:43:03;24.83;;;17.95;;
22965;SDS011;11649;48.090;9.754;2023-02-15T12:45:35;25.98;;;18.20;;
22965;SDS011;11649;48.090;9.754;2023-02-15T12:50:40;24.38;;;17.55;;
22965;SDS011;11649;48.090;9.754;2023-02-15T12:53:22;26.65;;;18.00;;
22965;SDS011;11649;48.090;9.754;2023-02-15T12:56:01;23.52;;;17.20;;
22965;SDS011;11649;48.090;9.754;2023-02-15T12:58:33;24.17;;;17.33;;
22965;SDS011;11649;48.090;9.754;2023-02-15T13:01:18;22.63;;;16.77;;
22965;SDS011;11649;48.090;9.754;2023-02-15T13:04:08;25.63;;;18.00;;
22965;SDS011;11649;48.090;9.754;2023-02-15T13:06:48;38.47;;;18.65;;
22965;SDS011;11649;48.090;9.754;2023-02-15T13:09:33;26.67;;;18.17;;
22965;SDS011;11649;48.090;9.754;2023-02-15T13:14:53;34.03;;;21.27;;
22965;SDS011;11649;48.090;9.754;2023-02-15T13:17:25;25.50;;;17.40;;
22965;SDS011;11649;48.090;9.754;2023-02-15T13:20:16;29.67;;;19.27;;
22965;SDS011;11649;48.090;9.754;2023-02-15T13:22:51;22.90;;;17.20;;
22965;SDS011;11649;48.090;9.754;2023-02-15T13:25:22;23.75;;;16.90;;
22965;SDS011;11649;48.090;9.754;2023-02-15T13:27:54;22.20;;;16.75;;
22965;SDS011;11649;48.090;9.754;2023-02-15T13:30:30;23.95;;;17.25;;
22965;SDS011;11649;48.090;9.754;2023-02-15T13:33:02;26.70;;;17.25;;
22965;SDS011;11649;48.090;9.754;2023-02-15T13:35:51;25.85;;;17.83;;
22965;SDS011;11649;48.090;9.754;2023-02-15T13:38:40;23.13;;;17.23;;
22965;SDS011;11649;48.090;9.754;2023-02-15T13:41:13;21.83;;;16.23;;
22965;SDS011;11649;48.090;9.754;2023-02-15T13:43:49;20.17;;;15.77;;
22965;SDS011;11649;48.090;9.754;2023-02-15T13:54:53;19.92;;;15.45;;
22965;SDS011;11649;48.090;9.754;2023-02-15T13:57:46;19.25;;;14.98;;
22965;SDS011;11649;48.090;9.754;2023-02-15T14:03:27;17.95;;;14.80;;
22965;SDS011;11649;48.090;9.754;2023-02-15T14:06:34;17.48;;;14.63;;
22965;SDS011;11649;48.090;9.754;2023-02-15T14:17:56;18.70;;;15.25;;
22965;SDS011;11649;48.090;9.754;2023-02-15T14:26:27;15.70;;;12.93;;
22965;SDS011;11649;48.090;9.754;2023-02-15T14:32:57;17.58;;;14.77;;
22965;SDS011;11649;48.090;9.754;2023-02-15T14:35:00;15.27;;;13.20;;
22965;SDS011;11649;48.090;9.754;2023-02-15T14:40:54;19.63;;;14.52;;
22965;SDS011;11649;48.090;9.754;2023-02-15T14:48:45;21.92;;;17.35;;
22965;SDS011;11649;48.090;9.754;2023-02-15T14:54:09;24.60;;;17.35;;
22965;SDS011;11649;48.090;9.754;2023-02-15T14:56:46;25.40;;;17.58;;
22965;SDS011;11649;48.090;9.754;2023-02-15T15:02:26;19.10;;;14.65;;
22965;SDS011;11649;48.090;9.754;2023-02-15T15:05:15;20.27;;;15.38;;
22965;SDS011;11649;48.090;9.754;2023-02-15T15:07:47;17.30;;;13.50;;
22965;SDS011;11649;48.090;9.754;2023-02-15T15:17:54;19.10;;;14.40;;
22965;SDS011;11649;48.090;9.754;2023-02-15T15:25:42;17.52;;;13.25;;
22965;SDS011;11649;48.090;9.754;2023-02-15T15:31:14;15.57;;;11.63;;
22965;SDS011;11649;48.090;9.754;2023-02-15T15:42:36;18.90;;;13.65;;
22965;SDS011;11649;48.090;9.754;2023-02-15T15:50:32;20.55;;;15.20;;
22965;SDS011;11649;48.090;9.754;2023-02-15T15:53:00;18.80;;;13.95;;
22965;SDS011;11649;48.090;9.754;2023-02-15T15:55:30;20.33;;;14.00;;
22965;SDS011;11649;48.090;9.754;2023-02-15T15:58:01;17.65;;;13.07;;
22965;SDS011;11649;48.090;9.754;2023-02-15T16:03:13;18.95;;;12.88;;
22965;SDS011;11649;48.090;9.754;2023-02-15T16:05:50;18.67;;;13.73;;
22965;SDS011;11649;48.090;9.754;2023-02-15T16:08:39;17.95;;;13.32;;
22965;SDS011;11649;48.090;9.754;2023-02-15T16:11:20;21.88;;;15.05;;
22965;SDS011;11649;48.090;9.754;2023-02-15T16:13:50;20.55;;;13.55;;
22965;SDS011;11649;48.090;9.754;2023-02-15T16:16:20;18.23;;;13.68;;
22965;SDS011;11649;48.090;9.754;2023-02-15T16:18:51;18.25;;;13.23;;
22965;SDS011;11649;48.090;9.754;2023-02-15T16:21:22;19.98;;;14.48;;
22965;SDS011;11649;48.090;9.754;2023-02-15T16:23:58;19.00;;;13.50;;
22965;SDS011;11649;48.090;9.754;2023-02-15T16:26:40;23.67;;;17.65;;
22965;SDS011;11649;48.090;9.754;2023-02-15T16:29:18;23.30;;;18.45;;
22965;SDS011;11649;48.090;9.754;2023-02-15T16:32:04;26.95;;;19.77;;
22965;SDS011;11649;48.090;9.754;2023-02-15T16:34:32;23.63;;;18.65;;
22965;SDS011;11649;48.090;9.754;2023-02-15T16:37:12;25.48;;;19.75;;
22965;SDS011;11649;48.090;9.754;2023-02-15T16:39:44;25.75;;;20.00;;
22965;SDS011;11649;48.090;9.754;2023-02-15T16:42:14;26.55;;;19.38;;
22965;SDS011;11649;48.090;9.754;2023-02-15T16:44:43;24.50;;;19.02;;
22965;SDS011;11649;48.090;9.754;2023-02-15T16:47:14;26.00;;;18.45;;
22965;SDS011;11649;48.090;9.754;2023-02-15T16:49:46;24.20;;;19.10;;
22965;SDS011;11649;48.090;9.754;2023-02-15T16:52:17;27.40;;;19.60;;
22965;SDS011;11649;48.090;9.754;2023-02-15T16:54:49;27.83;;;20.05;;
22965;SDS011;11649;48.090;9.754;2023-02-15T16:57:34;29.05;;;19.75;;
22965;SDS011;11649;48.090;9.754;2023-02-15T17:00:04;25.80;;;19.95;;
22965;SDS011;11649;48.090;9.754;2023-02-15T17:02:34;26.65;;;20.35;;
22965;SDS011;11649;48.090;9.754;2023-02-15T17:05:21;28.33;;;20.65;;
22965;SDS011;11649;48.090;9.754;2023-02-15T17:10:59;27.92;;;19.95;;
22965;SDS011;11649;48.090;9.754;2023-02-15T17:13:31;29.90;;;21.75;;
22965;SDS011;11649;48.090;9.754;2023-02-15T17:21:17;28.45;;;19.67;;
22965;SDS011;11649;48.090;9.754;2023-02-15T17:23:50;30.33;;;22.42;;
22965;SDS011;11649;48.090;9.754;2023-02-15T17:26:29;27.27;;;20.05;;
22965;SDS011;11649;48.090;9.754;2023-02-15T17:29:09;26.85;;;20.33;;
22965;SDS011;11649;48.090;9.754;2023-02-15T17:31:49;32.15;;;20.92;;
22965;SDS011;11649;48.090;9.754;2023-02-15T17:40:10;24.48;;;17.88;;
22965;SDS011;11649;48.090;9.754;2023-02-15T17:42:46;28.00;;;19.42;;
22965;SDS011;11649;48.090;9.754;2023-02-15T17:45:13;24.50;;;18.35;;
22965;SDS011;11649;48.090;9.754;2023-02-15T17:47:40;23.02;;;17.23;;
22965;SDS011;11649;48.090;9.754;2023-02-15T17:50:10;22.17;;;15.90;;
22965;SDS011;11649;48.090;9.754;2023-02-15T17:52:50;22.02;;;16.95;;
22965;SDS011;11649;48.090;9.754;2023-02-15T17:55:20;24.20;;;16.90;;
22965;SDS011;11649;48.090;9.754;2023-02-15T17:58:02;25.67;;;17.02;;